Euro IV — IQNH — position and weather

sailwx.info

Track history (hours):
 
Tides and Currents Weather Stations Pressure Air Temp Water Temp Dewpoint Dewpoint Depression Visibility Wind Speed Wind Dir Waves Ship Positions

Euro IV

Last reported at 2015-Aug-29 16:33 UTC. Time now 2015-Aug-29 16:55 UTC.
Position N 44°08' E 009°38'.

Length 25 m; draft 1.3 m.

Type: Passenger vessel. MMSI: 247131500.

Date/timePositionNaut miles runAvg speedWind from/ knotsBaromVisibWave heightAir tempDewpointWater temp
2015-Aug-29 16:33N 44°08' E 009°38'8 8.0
2015-Aug-29 15:33N 44°04' E 009°47'2 2.3
2015-Aug-29 14:33N 44°03' E 009°50'5 4.8
2015-Aug-29 13:27N 44°05' E 009°44'0 0.1
2015-Aug-29 10:33N 44°06' E 009°44'8 7.6
2015-Aug-29 09:31N 44°04' E 009°55'2 2.1
2015-Aug-29 08:33N 44°05' E 009°52'2 2.0
2015-Aug-29 07:33N 44°06' E 009°50'0 0.4
2015-Aug-29 06:33N 44°06' E 009°50'3 0.2
2015-Aug-28 16:33N 44°03' E 009°52'4 3.6
2015-Aug-28 15:33N 44°06' E 009°50'4 1.8
2015-Aug-28 13:33N 44°03' E 009°52'3 3.2
2015-Aug-28 12:33N 44°06' E 009°50'1 0.6
2015-Aug-28 11:33N 44°06' E 009°50'0 0.0
2015-Aug-28 10:33N 44°06' E 009°50'0 0.0
2015-Aug-28 09:16N 44°06' E 009°50'3 3.9
2015-Aug-28 08:34N 44°04' E 009°51'3 2.8
2015-Aug-28 07:33N 44°06' E 009°50'0 0.0
2015-Aug-28 06:33N 44°06' E 009°49'0 0.0
2015-Aug-27 16:31N 44°06' E 009°49'6 4.3
2015-Aug-27 15:06N 44°01' E 009°55'9 3.3
2015-Aug-27 12:25N 44°06' E 009°44'1 0.7
2015-Aug-27 11:33N 44°05' E 009°43'1 0.9
2015-Aug-27 10:31N 44°06' E 009°43'4 4.0
2015-Aug-27 09:33N 44°04' E 009°47'7 7.4
2015-Aug-27 08:33N 44°09' E 009°39'0 0.1
2015-Aug-27 07:33N 44°09' E 009°39'2 0.1
2015-Aug-26 13:19N 44°08' E 009°41'2 2.3
2015-Aug-26 12:33N 44°09' E 009°39'0 0.0
2015-Aug-26 11:32N 44°09' E 009°39'4 4.6
2015-Aug-26 10:33N 44°05' E 009°44'8 7.9
2015-Aug-26 09:33N 44°04' E 009°55'3 0.1
2015-Aug-25 13:27N 44°05' E 009°51'1 1.6
2015-Aug-25 12:33N 44°06' E 009°50'0 0.0
2015-Aug-24 14:15N 44°06' E 009°50'0 0.0
2015-Aug-24 13:34N 44°06' E 009°50'  
2015-Aug-21 08:33N 44°04' E 009°51'1 1.4
2015-Aug-21 07:33N 44°02' E 009°51'4 3.8
2015-Aug-21 06:34N 44°06' E 009°50'4 0.2
2015-Aug-20 14:19N 44°02' E 009°51'1 1.9
2015-Aug-20 13:33N 44°04' E 009°51'3 2.8
2015-Aug-20 12:33N 44°06' E 009°50'0 0.0
2015-Aug-20 11:34N 44°06' E 009°50'0 0.0
2015-Aug-20 10:33N 44°06' E 009°50'0 0.0
2015-Aug-20 09:34N 44°06' E 009°50'3 2.6
2015-Aug-20 08:33N 44°04' E 009°51'2 1.6
2015-Aug-20 07:33N 44°02' E 009°51'4 3.9
2015-Aug-20 06:33N 44°06' E 009°49'  
Track history (hours):
 
Tides and Currents Weather Stations Pressure Air Temp Water Temp Dewpoint Dewpoint Depression Visibility Wind Speed Wind Dir Waves Ship Positions

Euro IV

Last reported at 2015-Aug-29 16:33 UTC. Time now 2015-Aug-29 16:55 UTC.
Position N 44°08' E 009°38'.

Length 25 m; draft 1.3 m.

Type: Passenger vessel. MMSI: 247131500.

Date/timePositionNaut miles runAvg speedWind from/ knotsBaromVisibWave heightAir tempDewpointWater temp
2015-Aug-29 16:33N 44°08' E 009°38'8 8.0
2015-Aug-29 15:33N 44°04' E 009°47'2 2.3
2015-Aug-29 14:33N 44°03' E 009°50'5 4.8
2015-Aug-29 13:27N 44°05' E 009°44'0 0.1
2015-Aug-29 10:33N 44°06' E 009°44'8 7.6
2015-Aug-29 09:31N 44°04' E 009°55'2 2.1
2015-Aug-29 08:33N 44°05' E 009°52'2 2.0
2015-Aug-29 07:33N 44°06' E 009°50'0 0.4
2015-Aug-29 06:33N 44°06' E 009°50'3 0.2
2015-Aug-28 16:33N 44°03' E 009°52'4 3.6
2015-Aug-28 15:33N 44°06' E 009°50'4 1.8
2015-Aug-28 13:33N 44°03' E 009°52'3 3.2
2015-Aug-28 12:33N 44°06' E 009°50'1 0.6
2015-Aug-28 11:33N 44°06' E 009°50'0 0.0
2015-Aug-28 10:33N 44°06' E 009°50'0 0.0
2015-Aug-28 09:16N 44°06' E 009°50'3 3.9
2015-Aug-28 08:34N 44°04' E 009°51'3 2.8
2015-Aug-28 07:33N 44°06' E 009°50'0 0.0
2015-Aug-28 06:33N 44°06' E 009°49'0 0.0
2015-Aug-27 16:31N 44°06' E 009°49'6 4.3
2015-Aug-27 15:06N 44°01' E 009°55'9 3.3
2015-Aug-27 12:25N 44°06' E 009°44'1 0.7
2015-Aug-27 11:33N 44°05' E 009°43'1 0.9
2015-Aug-27 10:31N 44°06' E 009°43'4 4.0
2015-Aug-27 09:33N 44°04' E 009°47'7 7.4
2015-Aug-27 08:33N 44°09' E 009°39'0 0.1
2015-Aug-27 07:33N 44°09' E 009°39'2 0.1
2015-Aug-26 13:19N 44°08' E 009°41'2 2.3
2015-Aug-26 12:33N 44°09' E 009°39'0 0.0
2015-Aug-26 11:32N 44°09' E 009°39'4 4.6
2015-Aug-26 10:33N 44°05' E 009°44'8 7.9
2015-Aug-26 09:33N 44°04' E 009°55'3 0.1
2015-Aug-25 13:27N 44°05' E 009°51'1 1.6
2015-Aug-25 12:33N 44°06' E 009°50'0 0.0
2015-Aug-24 14:15N 44°06' E 009°50'0 0.0
2015-Aug-24 13:34N 44°06' E 009°50'  
2015-Aug-21 08:33N 44°04' E 009°51'1 1.4
2015-Aug-21 07:33N 44°02' E 009°51'4 3.8
2015-Aug-21 06:34N 44°06' E 009°50'4 0.2
2015-Aug-20 14:19N 44°02' E 009°51'1 1.9
2015-Aug-20 13:33N 44°04' E 009°51'3 2.8
2015-Aug-20 12:33N 44°06' E 009°50'0 0.0
2015-Aug-20 11:34N 44°06' E 009°50'0 0.0
2015-Aug-20 10:33N 44°06' E 009°50'0 0.0
2015-Aug-20 09:34N 44°06' E 009°50'3 2.6
2015-Aug-20 08:33N 44°04' E 009°51'2 1.6
2015-Aug-20 07:33N 44°02' E 009°51'4 3.9
2015-Aug-20 06:33N 44°06' E 009°49'  

Dump ship's entire track history